Belcoville, New Jersey
Current Conditions -  °F | °C
As of 1:54 PM on Friday 28 Nov 2014 (Local Time) from KACY Reporting Station
Overcast Overcast  
Wind Chill: 28°   Ceiling: 5000
Heat Index: 37°   Visibility: 10mi
Dew Point: 20°   Wind: 15mph
Humidity: 50%   Direction: 320°NW
Pressure: 30.19"   Gusts: NA
Location:  39.4502°N, 74.7366°W
Report Text: KACY 281854Z AUTO 32013KT 10SM OVC050 03/M07 A3019 RMK AO2 SLP225 T00281067 TSNO
Loading
Personal Weather Stations






























Interactive Weather Map New forecast layout! Learn more

10-Day Weather Forecast

Advertisements
Track Severe Weather on mobile